createdAt,value
2018-05-06T00:01:13.872Z,90.20
2018-05-06T00:03:42.171Z,90.20
2018-05-06T00:06:10.594Z,90.20
2018-05-06T00:11:13.643Z,90.80
2018-05-06T00:13:42.644Z,90.40
2018-05-06T00:16:10.924Z,90.40
2018-05-06T00:18:39.279Z,90.70
2018-05-06T00:21:10.016Z,90.90
2018-05-06T00:23:39.024Z,91.00
2018-05-06T00:26:07.304Z,91.00
2018-05-06T00:28:35.589Z,91.10
2018-05-06T00:31:03.889Z,91.10
2018-05-06T00:33:32.179Z,91.20
2018-05-06T00:36:00.359Z,91.20
2018-05-06T00:38:30.307Z,91.50
2018-05-06T00:40:58.609Z,91.50
2018-05-06T00:43:26.882Z,91.60
2018-05-06T00:45:55.151Z,91.60
2018-05-06T00:48:23.462Z,91.60
2018-05-06T00:50:51.843Z,91.70
2018-05-06T00:53:20.119Z,91.70
2018-05-06T00:55:49.362Z,91.80
2018-05-06T00:58:17.697Z,91.80
2018-05-06T01:00:47.088Z,91.90
2018-05-06T01:03:15.357Z,92.00
2018-05-06T01:05:43.621Z,92.10
2018-05-06T01:08:11.913Z,92.20
2018-05-06T01:10:40.188Z,92.30
2018-05-06T01:13:08.439Z,92.40
2018-05-06T01:15:37.076Z,92.50
2018-05-06T01:18:05.320Z,92.70
2018-05-06T01:20:33.586Z,92.70
2018-05-06T01:23:01.841Z,92.80
2018-05-06T01:25:30.121Z,92.80
2018-05-06T01:27:58.363Z,92.90
2018-05-06T01:30:28.736Z,93.20
2018-05-06T01:32:57.013Z,93.20
2018-05-06T01:35:25.304Z,93.20
2018-05-06T01:37:53.672Z,93.20
2018-05-06T01:40:21.925Z,93.30
2018-05-06T01:42:50.170Z,93.30
2018-05-06T01:45:18.532Z,93.40
2018-05-06T01:47:46.895Z,93.50
2018-05-06T01:50:15.168Z,93.50
2018-05-06T01:52:43.434Z,93.60
2018-05-06T01:55:11.723Z,93.60
2018-05-06T01:57:39.999Z,93.60
2018-05-06T02:00:08.255Z,93.60
2018-05-06T02:02:36.533Z,93.70
2018-05-06T02:05:04.824Z,93.70
2018-05-06T02:07:33.104Z,93.70
2018-05-06T02:10:01.360Z,93.80
2018-05-06T02:12:30.447Z,93.80
2018-05-06T02:14:58.736Z,93.90
2018-05-06T02:17:26.990Z,94.00
2018-05-06T02:19:55.241Z,93.90
2018-05-06T02:22:24.301Z,94.00
2018-05-06T02:24:52.584Z,94.00
2018-05-06T02:27:20.961Z,94.00
2018-05-06T02:29:50.737Z,94.10
2018-05-06T02:32:19.012Z,94.00
2018-05-06T02:34:47.280Z,94.10
2018-05-06T02:37:15.599Z,94.10
2018-05-06T02:39:43.939Z,94.20
2018-05-06T02:42:12.182Z,94.20
2018-05-06T02:44:41.180Z,94.30
2018-05-06T02:47:09.485Z,94.70
2018-05-06T02:49:37.732Z,94.30
2018-05-06T02:52:06.005Z,94.40
2018-05-06T02:54:35.070Z,94.80
2018-05-06T02:57:03.332Z,94.80
2018-05-06T02:59:31.613Z,94.90
2018-05-06T03:01:59.856Z,94.90
2018-05-06T03:04:28.132Z,94.90
2018-05-06T03:06:56.412Z,95.00
2018-05-06T03:09:24.651Z,94.90
2018-05-06T03:11:53.713Z,94.90
2018-05-06T03:14:21.956Z,94.90
2018-05-06T03:16:50.233Z,95.00
2018-05-06T03:19:18.490Z,95.00
2018-05-06T03:21:48.428Z,95.00
2018-05-06T03:24:16.672Z,95.00
2018-05-06T03:26:44.972Z,95.10
2018-05-06T03:29:13.236Z,95.10
2018-05-06T03:31:42.637Z,95.10
2018-05-06T03:34:11.685Z,95.10
2018-05-06T03:36:39.948Z,95.00
2018-05-06T03:39:09.745Z,95.00
2018-05-06T03:41:38.030Z,95.00
2018-05-06T03:44:06.289Z,94.90
2018-05-06T03:46:34.528Z,94.90
2018-05-06T03:49:03.600Z,95.00
2018-05-06T03:51:31.815Z,95.00
2018-05-06T03:54:00.137Z,95.00
2018-05-06T04:21:20.994Z,95.20
2018-05-06T04:23:49.160Z,95.20
2018-05-06T04:26:17.408Z,95.40
2018-05-06T04:28:45.674Z,95.00
2018-05-06T04:31:13.913Z,95.00
2018-05-06T04:33:42.145Z,95.00
2018-05-06T04:36:10.444Z,94.90
2018-05-06T04:38:38.687Z,95.20
2018-05-06T04:41:07.021Z,94.30
2018-05-06T04:43:35.262Z,94.20
2018-05-06T04:46:03.520Z,94.10
2018-05-06T04:48:31.841Z,93.90
2018-05-06T04:51:00.140Z,93.80
2018-05-06T04:53:29.159Z,93.40
2018-05-06T04:55:57.443Z,93.40
2018-05-06T04:58:25.743Z,93.20
2018-05-06T05:00:54.032Z,92.90
2018-05-06T05:03:22.293Z,91.90
2018-05-06T05:05:50.579Z,91.10
2018-05-06T05:08:20.049Z,90.80
2018-05-06T05:10:48.289Z,86.70
2018-05-06T05:13:16.777Z,80.50
2018-05-06T05:15:46.755Z,72.40
2018-05-06T05:18:15.041Z,72.30
2018-05-06T05:20:43.297Z,67.60
2018-05-06T05:23:12.379Z,62.50
2018-05-06T05:25:41.584Z,59.50
2018-05-06T05:28:09.819Z,55.40
2018-05-06T05:30:38.861Z,53.40
2018-05-06T05:33:07.113Z,53.50
2018-05-06T05:35:35.424Z,50.20
2018-05-06T05:40:36.900Z,45.50
2018-05-06T05:43:05.137Z,45.30
2018-05-06T05:45:33.444Z,45.50
2018-05-06T05:48:01.699Z,45.50
2018-05-06T05:50:29.943Z,43.30
2018-05-06T05:52:58.268Z,41.20
2018-05-06T05:55:26.515Z,41.50
2018-05-06T05:57:55.110Z,40.70
2018-05-06T06:00:23.383Z,41.50
2018-05-06T06:02:52.393Z,40.10
2018-05-06T06:05:20.676Z,40.00
2018-05-06T06:07:48.958Z,38.30
2018-05-06T06:10:17.241Z,36.50
2018-05-06T06:12:45.548Z,37.30
2018-05-06T06:15:14.584Z,35.40
2018-05-06T06:17:42.872Z,35.40
2018-05-06T06:20:11.148Z,36.80
2018-05-06T06:22:39.435Z,36.40
2018-05-06T06:25:07.705Z,36.70
2018-05-06T06:27:36.003Z,34.20
2018-05-06T06:32:36.700Z,32.10
2018-05-06T06:35:04.979Z,32.90
2018-05-06T06:37:34.051Z,33.30
2018-05-06T06:40:03.100Z,33.30
2018-05-06T06:42:31.345Z,33.30
2018-05-06T06:44:59.670Z,32.40
2018-05-06T06:47:27.920Z,29.80
2018-05-06T06:49:56.201Z,30.30
2018-05-06T06:52:24.486Z,29.30
2018-05-06T06:54:52.752Z,30.30
2018-05-06T06:57:23.704Z,30.80
2018-05-06T06:59:52.012Z,30.20
2018-05-06T07:02:21.605Z,29.90
2018-05-06T07:04:50.648Z,30.30
2018-05-06T07:07:18.915Z,30.30
2018-05-06T07:09:47.160Z,30.10
2018-05-06T07:12:15.447Z,30.00
2018-05-06T07:14:43.713Z,30.00
2018-05-06T07:17:12.018Z,30.00
2018-05-06T07:19:40.249Z,28.40
2018-05-06T07:22:09.304Z,28.70
2018-05-06T07:24:37.575Z,28.70
2018-05-06T07:27:05.836Z,28.30
2018-05-06T07:29:34.117Z,28.50
2018-05-06T07:32:02.442Z,30.00
2018-05-06T07:34:31.525Z,33.20
2018-05-06T07:37:01.130Z,34.00
2018-05-06T07:39:29.431Z,33.90
2018-05-06T07:41:58.479Z,35.80
2018-05-06T07:44:26.760Z,35.80
2018-05-06T07:46:55.023Z,35.70
2018-05-06T07:49:23.308Z,36.60
2018-05-06T07:51:51.572Z,37.10
2018-05-06T07:54:19.822Z,37.90
2018-05-06T07:56:48.124Z,42.70
2018-05-06T07:59:16.538Z,43.80
2018-05-06T08:01:44.795Z,45.10
2018-05-06T08:04:13.086Z,46.50
2018-05-06T08:06:41.377Z,48.70
2018-05-06T08:09:11.335Z,53.80
2018-05-06T08:11:42.905Z,55.80
2018-05-06T08:14:11.219Z,55.80
2018-05-06T08:16:39.499Z,58.00
2018-05-06T08:19:07.779Z,61.00
2018-05-06T08:21:36.788Z,58.90
2018-05-06T08:24:05.834Z,58.40
2018-05-06T08:26:34.091Z,58.30
2018-05-06T08:29:02.408Z,59.40
2018-05-06T08:31:30.655Z,59.20
2018-05-06T08:34:00.123Z,60.90
2018-05-06T08:36:29.154Z,60.70
2018-05-06T08:38:59.691Z,60.60
2018-05-06T08:41:27.968Z,60.50
2018-05-06T08:43:56.225Z,58.50
2018-05-06T08:46:24.495Z,58.40
2018-05-06T08:48:52.780Z,57.10
2018-05-06T08:51:21.072Z,55.80
2018-05-06T08:53:49.329Z,56.80
2018-05-06T08:56:17.619Z,55.80
2018-05-06T08:58:49.642Z,55.90
2018-05-06T09:01:19.833Z,55.00
2018-05-06T09:03:48.075Z,54.80
2018-05-06T09:06:16.589Z,55.00
2018-05-06T09:08:45.717Z,55.40
2018-05-06T09:11:14.146Z,54.40
2018-05-06T09:13:43.833Z,53.60
2018-05-06T09:16:12.111Z,53.60
2018-05-06T09:18:40.364Z,59.50
2018-05-06T09:21:08.657Z,55.50
2018-05-06T09:23:37.832Z,53.80
2018-05-06T09:26:06.086Z,52.70
2018-05-06T09:28:35.096Z,52.20
2018-05-06T09:31:03.419Z,52.30
2018-05-06T09:33:31.682Z,53.20
2018-05-06T09:35:59.976Z,51.70
2018-05-06T09:38:28.231Z,53.60
2018-05-06T09:40:56.529Z,55.20
2018-05-06T09:43:24.815Z,50.90
2018-05-06T09:45:53.037Z,56.40
2018-05-06T09:48:21.311Z,52.50
2018-05-06T09:50:49.596Z,50.90
2018-05-06T09:53:17.843Z,50.10
2018-05-06T09:55:46.139Z,51.40
2018-05-06T09:58:14.446Z,51.90
2018-05-06T10:00:42.727Z,51.30
2018-05-06T10:03:12.256Z,51.60
2018-05-06T10:05:40.587Z,53.10
2018-05-06T10:08:08.893Z,48.20
2018-05-06T10:10:37.135Z,47.90
2018-05-06T10:13:05.429Z,51.60
2018-05-06T10:15:33.717Z,48.50
2018-05-06T10:18:01.961Z,49.70
2018-05-06T10:20:30.228Z,50.40
2018-05-06T10:22:58.527Z,48.20
2018-05-06T10:25:26.792Z,48.00
2018-05-06T10:27:55.092Z,47.30
2018-05-06T10:30:23.382Z,47.40
2018-05-06T10:32:51.687Z,48.40
2018-05-06T10:35:20.743Z,46.60
2018-05-06T10:37:48.985Z,46.60
2018-05-06T10:40:18.627Z,45.60
2018-05-06T10:42:46.925Z,45.50
2018-05-06T10:45:15.327Z,45.20
2018-05-06T10:47:43.569Z,47.20
2018-05-06T10:50:11.844Z,48.90
2018-05-06T10:52:40.116Z,45.70
2018-05-06T10:55:08.358Z,44.50
2018-05-06T10:57:36.668Z,45.10
2018-05-06T11:00:04.947Z,44.10
2018-05-06T11:02:33.214Z,44.90
2018-05-06T11:05:01.505Z,44.00
2018-05-06T11:07:29.779Z,44.20
2018-05-06T11:09:58.031Z,45.10
2018-05-06T11:12:26.295Z,46.70
2018-05-06T11:14:54.535Z,46.10
2018-05-06T11:17:23.600Z,44.40
2018-05-06T11:19:51.908Z,44.20
2018-05-06T11:22:20.965Z,43.60
2018-05-06T11:24:49.224Z,43.60
2018-05-06T11:27:17.498Z,43.00
2018-05-06T11:29:45.726Z,43.70
2018-05-06T11:32:15.652Z,43.20
2018-05-06T11:34:45.224Z,43.30
2018-05-06T11:37:13.496Z,43.90
2018-05-06T11:39:41.774Z,44.60
2018-05-06T11:42:10.084Z,43.90
2018-05-06T11:44:39.141Z,42.60
2018-05-06T11:47:07.520Z,42.50
2018-05-06T11:49:35.798Z,43.10
2018-05-06T11:52:04.885Z,42.50
2018-05-06T11:54:33.167Z,44.40
2018-05-06T11:57:01.446Z,43.30
2018-05-06T11:59:30.602Z,44.70
2018-05-06T12:01:58.824Z,46.30
2018-05-06T12:04:27.108Z,42.10
2018-05-06T12:06:56.125Z,47.20
2018-05-06T12:09:24.401Z,47.10
2018-05-06T12:11:52.714Z,42.40
2018-05-06T12:14:21.016Z,41.70
2018-05-06T12:16:49.404Z,40.60
2018-05-06T12:19:17.633Z,41.10
2018-05-06T12:21:46.038Z,41.20
2018-05-06T12:24:14.334Z,41.30
2018-05-06T12:26:42.593Z,40.80
2018-05-06T12:29:10.853Z,41.10
2018-05-06T12:31:39.146Z,40.70
2018-05-06T12:34:07.419Z,40.90
2018-05-06T12:36:35.643Z,41.60
2018-05-06T12:39:03.930Z,43.60
2018-05-06T12:41:32.201Z,40.60
2018-05-06T12:44:00.441Z,40.60
2018-05-06T12:46:28.742Z,40.60
2018-05-06T12:48:56.989Z,42.00
2018-05-06T12:51:25.337Z,41.20
2018-05-06T12:53:53.615Z,41.70
2018-05-06T12:56:21.897Z,41.60
2018-05-06T12:58:50.154Z,41.80
2018-05-06T13:01:19.567Z,41.00
2018-05-06T13:03:47.874Z,41.60
2018-05-06T13:06:17.019Z,41.40
2018-05-06T13:08:45.293Z,42.00
2018-05-06T13:11:14.661Z,41.80
2018-05-06T13:13:42.961Z,41.30
2018-05-06T13:16:11.215Z,41.90
2018-05-06T13:18:40.240Z,43.10
2018-05-06T13:21:08.585Z,43.00
2018-05-06T13:23:37.608Z,41.90
2018-05-06T13:26:05.836Z,42.00
2018-05-06T13:28:35.288Z,43.30
2018-05-06T13:31:03.539Z,43.80
2018-05-06T13:33:32.562Z,42.80
2018-05-06T13:36:00.852Z,42.60
2018-05-06T13:38:29.116Z,42.30
2018-05-06T13:40:57.386Z,42.30
2018-05-06T13:43:25.723Z,41.90
2018-05-06T13:45:53.987Z,41.40
2018-05-06T13:48:22.326Z,41.60
2018-05-06T13:50:50.602Z,43.00
2018-05-06T13:53:19.687Z,42.70
2018-05-06T13:55:48.024Z,43.00
2018-05-06T13:58:16.293Z,42.10
2018-05-06T14:00:44.549Z,40.90
2018-05-06T14:03:12.989Z,43.50
2018-05-06T14:05:41.406Z,41.20
2018-05-06T14:08:09.700Z,40.60
2018-05-06T14:10:39.476Z,41.30
2018-05-06T14:13:07.790Z,41.30
2018-05-06T14:15:36.074Z,43.10
2018-05-06T14:18:04.708Z,42.50
2018-05-06T14:20:32.956Z,41.60
2018-05-06T14:23:01.956Z,41.50
2018-05-06T14:25:30.238Z,41.40
2018-05-06T14:27:59.268Z,42.00
2018-05-06T14:30:27.561Z,42.00
2018-05-06T14:32:55.850Z,41.90
2018-05-06T14:35:24.202Z,40.80
2018-05-06T14:37:52.464Z,41.40
2018-05-06T14:40:20.729Z,41.40
2018-05-06T14:42:50.213Z,40.70
2018-05-06T14:45:19.261Z,40.90
2018-05-06T14:48:00.774Z,40.90
2018-05-06T14:50:29.052Z,41.50
2018-05-06T14:52:58.151Z,40.60
2018-05-06T14:55:26.437Z,41.70
2018-05-06T14:57:55.570Z,41.70
2018-05-06T15:00:23.837Z,41.70
2018-05-06T15:02:52.144Z,41.50
2018-05-06T15:05:20.526Z,41.80
2018-05-06T15:07:48.790Z,42.10
2018-05-06T15:10:17.092Z,42.30
2018-05-06T15:12:45.363Z,43.90
2018-05-06T15:15:14.883Z,43.50
2018-05-06T15:17:43.953Z,42.30
2018-05-06T15:20:12.206Z,42.00
2018-05-06T15:22:40.465Z,42.30
2018-05-06T15:25:08.776Z,42.70
2018-05-06T15:27:37.014Z,43.20
2018-05-06T15:30:05.276Z,43.40
2018-05-06T15:32:33.653Z,42.00
2018-05-06T15:35:01.864Z,41.50
2018-05-06T15:37:31.073Z,42.00
2018-05-06T15:39:59.336Z,42.10
2018-05-06T15:42:27.631Z,41.90
2018-05-06T15:44:55.859Z,42.80
2018-05-06T15:47:24.113Z,42.50
2018-05-06T15:49:53.173Z,41.90
2018-05-06T15:52:21.468Z,41.80
2018-05-06T15:54:49.763Z,41.90
2018-05-06T15:57:18.860Z,42.10
2018-05-06T15:59:47.923Z,42.60
2018-05-06T16:05:44.625Z,43.00
2018-05-06T16:08:12.923Z,43.10
2018-05-06T16:10:41.190Z,42.90
2018-05-06T16:13:09.477Z,42.70
2018-05-06T16:15:37.792Z,42.40
2018-05-06T16:18:06.056Z,43.50
2018-05-06T16:20:36.795Z,42.40
2018-05-06T16:23:05.053Z,42.90
2018-05-06T16:25:33.304Z,42.60
2018-05-06T16:28:01.545Z,42.90
2018-05-06T16:30:30.622Z,43.60
2018-05-06T16:32:58.905Z,43.40
2018-05-06T16:35:27.183Z,43.90
2018-05-06T16:37:55.515Z,43.10
2018-05-06T16:40:24.492Z,43.20
2018-05-06T16:42:52.756Z,43.20
2018-05-06T16:45:21.056Z,43.10
2018-05-06T16:47:49.302Z,43.80
2018-05-06T16:50:18.373Z,44.00
2018-05-06T16:52:46.697Z,43.90
2018-05-06T16:55:14.911Z,44.50
2018-05-06T16:57:44.084Z,43.80
2018-05-06T17:00:12.391Z,43.80
2018-05-06T17:02:40.659Z,43.60
2018-05-06T17:05:08.952Z,44.80
2018-05-06T17:07:37.375Z,45.80
2018-05-06T17:10:05.626Z,46.70
2018-05-06T17:12:34.689Z,47.80
2018-05-06T17:15:02.972Z,47.80
2018-05-06T17:20:15.492Z,46.60
2018-05-06T17:22:43.745Z,46.80
2018-05-06T17:25:12.063Z,47.10
2018-05-06T17:27:40.324Z,47.40
2018-05-06T17:30:08.572Z,47.00
2018-05-06T17:32:36.894Z,47.50
2018-05-06T17:35:05.160Z,47.80
2018-05-06T17:37:33.425Z,49.10
2018-05-06T17:40:01.830Z,49.70
2018-05-06T17:42:30.880Z,50.50
2018-05-06T17:44:59.181Z,50.50
2018-05-06T17:47:27.492Z,50.60
2018-05-06T17:49:56.612Z,51.30
2018-05-06T17:52:24.837Z,51.30
2018-05-06T17:54:53.126Z,52.10
2018-05-06T17:57:22.176Z,54.50
2018-05-06T17:59:50.566Z,54.50
2018-05-06T18:02:18.825Z,55.40
2018-05-06T18:04:47.105Z,56.40
2018-05-06T18:07:15.751Z,57.10
2018-05-06T18:09:44.792Z,58.30
2018-05-06T18:12:13.057Z,58.30
2018-05-06T18:14:41.369Z,59.00
2018-05-06T18:17:09.613Z,59.40
2018-05-06T18:19:38.001Z,59.90
2018-05-06T18:22:06.256Z,60.20
2018-05-06T18:24:34.590Z,60.60
2018-05-06T18:27:02.834Z,61.10
2018-05-06T18:29:31.134Z,61.60
2018-05-06T18:32:00.036Z,62.20
2018-05-06T18:34:29.446Z,63.70
2018-05-06T18:36:57.733Z,63.60
2018-05-06T18:39:26.020Z,64.20
2018-05-06T18:41:54.325Z,64.60
2018-05-06T18:44:22.598Z,65.40
2018-05-06T18:46:51.883Z,65.90
2018-05-06T18:49:20.102Z,66.40
2018-05-06T18:51:49.617Z,67.50
2018-05-06T18:54:18.702Z,67.90
2018-05-06T18:56:47.823Z,69.10
2018-05-06T18:59:16.868Z,68.30
2018-05-06T19:01:46.079Z,68.80
2018-05-06T19:04:15.497Z,69.00
2018-05-06T19:06:43.823Z,69.30
2018-05-06T19:09:12.947Z,69.70
2018-05-06T19:14:14.860Z,70.10
2018-05-06T19:16:43.956Z,71.40
2018-05-06T19:19:13.026Z,71.10
2018-05-06T19:21:41.304Z,71.00
2018-05-06T19:24:09.607Z,71.40
2018-05-06T19:26:38.740Z,71.50
2018-05-06T19:29:06.952Z,71.50
2018-05-06T19:31:36.099Z,71.40
2018-05-06T19:34:04.379Z,71.60
2018-05-06T19:36:32.699Z,71.90
2018-05-06T19:39:01.220Z,72.30
2018-05-06T19:41:29.556Z,72.90
2018-05-06T19:43:57.906Z,73.30
2018-05-06T19:46:26.163Z,73.70
2018-05-06T19:48:54.491Z,74.10
2018-05-06T19:53:55.919Z,75.20
2018-05-06T19:56:24.199Z,75.20
2018-05-06T19:58:52.479Z,75.40
2018-05-06T20:01:20.746Z,75.80
2018-05-06T20:03:49.056Z,75.70
2018-05-06T20:06:17.328Z,75.60
2018-05-06T20:08:45.713Z,75.90
2018-05-06T20:11:14.752Z,76.20
2018-05-06T20:13:45.589Z,76.60
2018-05-06T20:16:13.892Z,76.50
2018-05-06T20:18:42.199Z,76.70
2018-05-06T20:21:10.478Z,77.00
2018-05-06T20:23:38.804Z,77.40
2018-05-06T20:26:07.390Z,77.80
2018-05-06T20:28:35.713Z,78.00
2018-05-06T20:31:03.991Z,78.30
2018-05-06T20:33:32.258Z,78.50
2018-05-06T20:36:00.582Z,79.00
2018-05-06T20:38:28.970Z,79.40
2018-05-06T20:40:57.207Z,79.70
2018-05-06T20:43:26.797Z,80.20
2018-05-06T20:45:55.905Z,80.40
2018-05-06T20:48:24.926Z,80.70
2018-05-06T20:50:53.223Z,80.70
2018-05-06T20:53:21.514Z,81.10
2018-05-06T20:55:49.776Z,81.40
2018-05-06T20:58:18.050Z,81.50
2018-05-06T21:00:46.348Z,81.80
2018-05-06T21:03:14.709Z,82.00
2018-05-06T21:05:42.966Z,82.30
2018-05-06T21:08:11.269Z,82.70
2018-05-06T21:10:39.512Z,82.90
2018-05-06T21:13:07.772Z,83.10
2018-05-06T21:15:36.832Z,83.70
2018-05-06T21:18:05.122Z,83.60
2018-05-06T21:20:33.345Z,83.90
2018-05-06T21:23:01.661Z,84.30
2018-05-06T21:25:29.933Z,84.50
2018-05-06T21:27:58.267Z,84.80
2018-05-06T21:30:26.541Z,85.00
2018-05-06T21:32:54.892Z,85.30
2018-05-06T21:35:23.202Z,85.70
2018-05-06T21:37:51.457Z,85.80
2018-05-06T21:40:21.453Z,86.50
2018-05-06T21:42:49.760Z,86.50
2018-05-06T21:45:18.888Z,87.00
2018-05-06T21:47:47.171Z,87.00
2018-05-06T21:50:15.449Z,87.20
2018-05-06T21:52:43.769Z,87.30
2018-05-06T21:55:12.764Z,88.00
2018-05-06T21:57:41.845Z,88.20
2018-05-06T22:00:10.121Z,88.20
2018-05-06T22:02:38.411Z,88.50
2018-05-06T22:05:07.519Z,89.30
2018-05-06T22:07:36.591Z,89.30
2018-05-06T22:10:04.878Z,89.20
2018-05-06T22:12:33.167Z,89.50
2018-05-06T22:15:01.625Z,89.70
2018-05-06T22:17:29.965Z,89.80
2018-05-06T22:19:58.252Z,90.00
2018-05-06T22:22:26.624Z,90.10
2018-05-06T22:24:55.625Z,90.30
2018-05-06T22:27:23.943Z,90.20
2018-05-06T22:29:53.020Z,90.40
2018-05-06T22:32:21.313Z,90.40
2018-05-06T22:34:49.626Z,90.50
2018-05-06T22:37:17.897Z,90.70
2018-05-06T22:39:46.205Z,90.70
2018-05-06T22:42:14.539Z,90.80
2018-05-06T22:44:43.733Z,90.90
2018-05-06T22:47:12.019Z,91.00
2018-05-06T22:49:41.129Z,91.10
2018-05-06T22:52:09.403Z,91.10
2018-05-06T22:54:37.697Z,91.20
2018-05-06T22:57:07.204Z,91.40
2018-05-06T22:59:35.537Z,91.40
2018-05-06T23:04:37.036Z,91.60
2018-05-06T23:09:39.130Z,91.90
2018-05-06T23:12:07.552Z,91.90
2018-05-06T23:17:09.116Z,92.10
2018-05-06T23:22:09.847Z,92.30
2018-05-06T23:24:38.129Z,92.40
2018-05-06T23:27:06.411Z,92.50
2018-05-06T23:29:35.645Z,92.50
2018-05-06T23:32:03.941Z,92.60
2018-05-06T23:34:32.282Z,92.70
2018-05-06T23:37:01.368Z,92.80
2018-05-06T23:39:30.429Z,92.80
2018-05-06T23:41:58.704Z,92.80
2018-05-06T23:44:27.020Z,92.80
2018-05-06T23:46:56.988Z,92.90
2018-05-06T23:49:25.293Z,92.90
2018-05-06T23:51:53.593Z,92.90
2018-05-06T23:54:22.665Z,92.90
2018-05-06T23:56:50.920Z,92.90
2018-05-06T23:59:19.182Z,93.00
